createdAt,value
2022-08-20T00:02:24.753Z,5.90
2022-08-20T00:07:25.996Z,5.30
2022-08-20T00:12:27.283Z,5.70
2022-08-20T00:17:35.841Z,6.30
2022-08-20T00:22:37.497Z,6.90
2022-08-20T00:27:38.609Z,6.40
2022-08-20T00:33:01.268Z,6.90
2022-08-20T00:38:03.112Z,7.10
2022-08-20T00:43:23.164Z,6.40
2022-08-20T00:48:28.123Z,6.70
2022-08-20T00:53:30.145Z,6.50
2022-08-20T00:58:32.135Z,5.40
2022-08-20T01:03:33.834Z,5.70
2022-08-20T01:08:34.923Z,5.70
2022-08-20T01:13:37.977Z,5.60
2022-08-20T01:18:39.684Z,5.60
2022-08-20T01:24:05.794Z,5.90
2022-08-20T01:29:12.652Z,6.10
2022-08-20T01:34:18.966Z,6.20
2022-08-20T01:39:24.412Z,5.50
2022-08-20T01:44:26.115Z,5.10
2022-08-20T01:49:34.492Z,5.90
2022-08-20T01:54:35.687Z,6.30
2022-08-20T01:59:37.413Z,6.50
2022-08-20T02:04:40.189Z,5.50
2022-08-20T02:09:42.001Z,5.40
2022-08-20T02:14:46.038Z,5.60
2022-08-20T02:19:52.575Z,5.80
2022-08-20T02:24:53.764Z,5.60
2022-08-20T02:29:54.847Z,5.10
2022-08-20T02:34:56.209Z,5.20
2022-08-20T02:39:58.045Z,6.10
2022-08-20T02:44:59.406Z,5.50
2022-08-20T02:50:00.558Z,5.80
2022-08-20T02:55:01.731Z,5.50
2022-08-20T03:00:06.721Z,6.20
2022-08-20T03:05:08.898Z,6.70
2022-08-20T03:10:11.783Z,6.10
2022-08-20T03:15:17.833Z,5.60
2022-08-20T03:20:23.768Z,6.40
2022-08-20T03:25:25.691Z,5.70
2022-08-20T03:30:28.128Z,6.00
2022-08-20T03:35:31.222Z,6.60
2022-08-20T03:40:33.787Z,6.10
2022-08-20T03:45:37.371Z,5.70
2022-08-20T03:50:41.640Z,6.70
2022-08-20T03:55:54.497Z,5.90
2022-08-20T04:00:57.131Z,6.30
2022-08-20T04:05:58.813Z,6.40
2022-08-20T04:10:59.995Z,6.10
2022-08-20T04:16:07.970Z,6.60
2022-08-20T04:21:13.012Z,6.00
2022-08-20T04:26:15.462Z,6.50
2022-08-20T04:31:18.171Z,6.50
2022-08-20T04:36:21.365Z,5.90
2022-08-20T04:41:24.182Z,5.90
2022-08-20T04:46:27.812Z,5.50
2022-08-20T04:51:29.419Z,6.70
2022-08-20T04:56:38.294Z,6.90
2022-08-20T05:01:39.482Z,6.70
2022-08-20T05:06:40.896Z,6.70
2022-08-20T05:11:42.068Z,6.40
2022-08-20T05:16:43.163Z,6.20
2022-08-20T05:21:44.295Z,6.60
2022-08-20T05:26:45.888Z,6.40
2022-08-20T05:31:47.053Z,6.70
2022-08-20T05:36:50.496Z,5.30
2022-08-20T05:41:52.059Z,5.20
2022-08-20T05:46:53.210Z,5.20
2022-08-20T05:51:54.568Z,6.90
2022-08-20T05:56:56.672Z,6.50
2022-08-20T06:01:57.748Z,9.20
2022-08-20T06:07:05.559Z,7.10
2022-08-20T06:12:08.461Z,6.20
2022-08-20T06:17:13.313Z,5.30
2022-08-20T06:22:18.779Z,5.50
2022-08-20T06:27:27.279Z,5.80
2022-08-20T06:32:31.665Z,6.80
2022-08-20T06:37:36.028Z,6.80
2022-08-20T06:42:47.871Z,5.30
2022-08-20T06:47:52.015Z,5.60
2022-08-20T06:52:53.486Z,5.50
2022-08-20T06:58:04.613Z,5.60
2022-08-20T07:03:06.208Z,5.20
2022-08-20T07:08:13.780Z,4.80
2022-08-20T07:13:15.558Z,4.70
2022-08-20T07:18:17.220Z,5.40
2022-08-20T07:23:30.872Z,5.40
2022-08-20T07:28:34.462Z,5.20
2022-08-20T07:33:38.642Z,4.80
2022-08-20T07:38:40.913Z,5.60
2022-08-20T07:43:46.365Z,5.40
2022-08-20T07:48:49.307Z,5.60
2022-08-20T07:53:51.980Z,5.50
2022-08-20T07:58:55.658Z,5.20
2022-08-20T08:03:58.940Z,5.90
2022-08-20T08:09:05.005Z,5.20
2022-08-20T08:14:08.747Z,5.80
2022-08-20T08:19:11.137Z,5.40
2022-08-20T08:24:19.368Z,5.60
2022-08-20T08:29:22.268Z,6.10
2022-08-20T08:34:24.617Z,5.70
2022-08-20T08:39:25.730Z,5.20
2022-08-20T08:44:40.715Z,5.20
2022-08-20T08:49:45.491Z,5.30
2022-08-20T08:54:49.509Z,5.10
2022-08-20T09:00:04.867Z,5.60
2022-08-20T09:05:17.049Z,4.90
2022-08-20T09:10:23.241Z,5.10
2022-08-20T09:15:25.102Z,4.80
2022-08-20T09:20:27.262Z,4.70
2022-08-20T09:25:28.663Z,5.30
2022-08-20T09:30:29.785Z,5.20
2022-08-20T09:35:31.049Z,5.60
2022-08-20T09:40:32.798Z,5.50
2022-08-20T09:45:34.902Z,4.70
2022-08-20T09:50:38.904Z,5.10
2022-08-20T09:55:43.285Z,5.40
2022-08-20T10:00:44.715Z,5.60
2022-08-20T10:05:46.223Z,5.70
2022-08-20T10:10:47.319Z,5.80
2022-08-20T10:15:48.426Z,6.00
2022-08-20T10:20:49.615Z,6.00
2022-08-20T10:25:50.849Z,5.70
2022-08-20T10:30:51.923Z,5.30
2022-08-20T10:35:55.683Z,5.80
2022-08-20T10:41:01.141Z,5.90
2022-08-20T10:46:02.525Z,5.40
2022-08-20T10:51:04.239Z,5.80
2022-08-20T10:56:06.710Z,5.90
2022-08-20T11:01:08.384Z,5.30
2022-08-20T11:06:09.859Z,5.40
2022-08-20T11:11:11.140Z,5.40
2022-08-20T11:16:13.428Z,5.70
2022-08-20T11:21:14.943Z,5.90
2022-08-20T11:26:21.432Z,5.40
2022-08-20T11:31:22.505Z,5.80
2022-08-20T11:36:25.720Z,5.70
2022-08-20T11:41:26.799Z,5.80
2022-08-20T11:46:28.783Z,5.70
2022-08-20T11:51:30.259Z,6.00
2022-08-20T11:56:38.893Z,5.80
2022-08-20T12:02:03.058Z,5.70
2022-08-20T12:07:10.136Z,6.00
2022-08-20T12:12:11.601Z,7.20
2022-08-20T12:17:20.484Z,7.10
2022-08-20T12:22:25.343Z,5.70
2022-08-20T12:27:29.934Z,6.20
2022-08-20T12:32:31.613Z,6.30
2022-08-20T12:37:33.429Z,6.50
2022-08-20T12:42:34.626Z,6.60
2022-08-20T12:47:39.719Z,6.20
2022-08-20T12:52:41.903Z,6.20
2022-08-20T12:57:47.563Z,6.50
2022-08-20T13:02:50.115Z,6.50
2022-08-20T13:07:52.296Z,6.60
2022-08-20T13:12:54.181Z,6.30
2022-08-20T13:18:00.164Z,6.40
2022-08-20T13:23:03.500Z,6.40
2022-08-20T13:28:05.278Z,6.10
2022-08-20T13:33:06.407Z,6.70
2022-08-20T13:38:07.783Z,6.80
2022-08-20T13:43:11.885Z,6.40
2022-08-20T13:48:15.289Z,6.60
2022-08-20T13:53:16.872Z,6.50
2022-08-20T13:58:18.831Z,6.10
2022-08-20T14:03:25.295Z,6.70
2022-08-20T14:08:27.231Z,6.20
2022-08-20T14:13:28.441Z,6.60
2022-08-20T14:18:30.097Z,7.00
2022-08-20T14:23:31.177Z,6.30
2022-08-20T14:28:38.470Z,6.50
2022-08-20T14:33:44.013Z,6.10
2022-08-20T14:38:45.850Z,6.10
2022-08-20T14:43:47.016Z,6.00
2022-08-20T14:48:51.826Z,6.00
2022-08-20T14:53:54.606Z,6.10
2022-08-20T14:58:55.738Z,5.70
2022-08-20T15:03:56.960Z,6.00
2022-08-20T15:08:58.625Z,5.10
2022-08-20T15:13:59.720Z,5.50
2022-08-20T15:19:00.847Z,5.20
2022-08-20T15:24:02.563Z,5.20
2022-08-20T15:29:03.800Z,4.50
2022-08-20T15:34:04.893Z,4.20
2022-08-20T15:39:05.997Z,4.70
2022-08-20T15:44:07.213Z,4.90
2022-08-20T15:49:11.620Z,4.80
2022-08-20T15:54:23.711Z,4.90
2022-08-20T16:00:08.569Z,4.80
2022-08-20T16:05:23.072Z,6.00
2022-08-20T16:10:43.116Z,6.10
2022-08-20T16:20:53.070Z,7.70
2022-08-20T16:26:31.903Z,7.50
2022-08-20T16:31:41.140Z,6.90
2022-08-20T16:37:03.470Z,7.20
2022-08-20T16:42:09.751Z,6.70
2022-08-20T16:47:22.016Z,6.30
2022-08-20T16:52:23.743Z,6.40
2022-08-20T16:57:28.332Z,6.90
2022-08-20T17:02:29.775Z,6.90
2022-08-20T17:07:46.030Z,6.80
2022-08-20T17:13:14.744Z,6.50
2022-08-20T17:18:25.685Z,6.50
2022-08-20T17:23:27.638Z,7.70
2022-08-20T17:28:33.249Z,6.60
2022-08-20T17:33:38.587Z,7.10
2022-08-20T17:38:46.578Z,6.70
2022-08-20T17:43:57.167Z,6.80
2022-08-20T17:49:04.757Z,6.80
2022-08-20T17:54:27.152Z,7.40
2022-08-20T18:00:00.184Z,7.70
2022-08-20T18:04:56.111Z,7.90
2022-08-20T18:10:03.712Z,8.10
2022-08-20T18:15:25.160Z,7.90
2022-08-20T18:20:48.026Z,7.60
2022-08-20T18:25:56.088Z,7.60
2022-08-20T18:30:59.969Z,6.90
2022-08-20T18:36:19.638Z,9.10
2022-08-20T18:41:42.792Z,8.00
2022-08-20T18:47:05.147Z,8.20
2022-08-20T18:52:27.114Z,8.20
2022-08-20T18:57:41.489Z,8.80
2022-08-20T19:03:02.033Z,8.10
2022-08-20T19:08:05.613Z,7.70
2022-08-20T19:13:16.329Z,7.20
2022-08-20T19:18:29.731Z,7.30
2022-08-20T19:23:39.433Z,3.60
2022-08-20T19:28:46.652Z,4.40
2022-08-20T19:33:48.194Z,5.20
2022-08-20T19:38:57.546Z,6.00
2022-08-20T19:44:00.440Z,4.60
2022-08-20T19:49:17.359Z,5.80
2022-08-20T19:54:24.671Z,6.30
2022-08-20T19:59:25.851Z,6.80
2022-08-20T20:04:29.832Z,7.60
2022-08-20T20:09:31.380Z,8.70
2022-08-20T20:14:35.745Z,8.70
2022-08-20T20:19:58.615Z,7.80
2022-08-20T20:25:16.804Z,10.00
2022-08-20T20:30:28.470Z,7.60
2022-08-20T20:35:34.678Z,6.30
2022-08-20T20:40:50.445Z,5.20
2022-08-20T20:46:27.931Z,3.50
2022-08-20T20:51:33.045Z,2.90
2022-08-20T20:56:36.998Z,3.50
2022-08-20T21:01:49.297Z,3.80
2022-08-20T21:06:53.944Z,3.90
2022-08-20T21:11:55.083Z,3.10
2022-08-20T21:16:59.711Z,2.90
2022-08-20T21:22:00.844Z,2.20
2022-08-20T21:27:03.166Z,2.90
2022-08-20T21:32:04.798Z,2.90
2022-08-20T21:37:05.894Z,3.20
2022-08-20T21:42:29.447Z,3.80
2022-08-20T21:47:30.927Z,3.30
2022-08-20T21:52:32.016Z,3.90
2022-08-20T21:57:37.125Z,3.20
2022-08-20T22:02:38.255Z,3.70
2022-08-20T22:07:41.477Z,3.80
2022-08-20T22:12:42.584Z,4.00
2022-08-20T22:17:43.694Z,3.80
2022-08-20T22:22:46.022Z,4.30
2022-08-20T22:27:47.319Z,4.20
2022-08-20T22:32:52.142Z,4.80
2022-08-20T22:37:53.727Z,5.90
2022-08-20T22:42:54.981Z,6.80
2022-08-20T22:47:56.275Z,6.90
2022-08-20T22:52:58.658Z,7.60
2022-08-20T22:58:00.124Z,7.40
2022-08-20T23:03:03.507Z,6.30
2022-08-20T23:08:06.845Z,6.90
2022-08-20T23:13:08.053Z,7.20
2022-08-20T23:18:13.645Z,7.10
2022-08-20T23:23:14.932Z,7.40
2022-08-20T23:28:19.239Z,6.60
2022-08-20T23:33:20.443Z,7.00
2022-08-20T23:38:21.630Z,7.70
2022-08-20T23:43:22.888Z,7.80
2022-08-20T23:48:24.280Z,8.10
2022-08-20T23:53:25.624Z,7.60
2022-08-20T23:58:26.965Z,8.00
